Eula B. Devall — WDB6046 — position and weather

sailwx.info

Track history (hours):
 
Tides and Currents Weather Stations Pressure Air Temp Water Temp Dewpoint Dewpoint Depression Visibility Wind Speed Wind Dir Waves Ship Positions

Eula B. Devall

Owner: Eula B. Devall, Inc., Sulphur, LA. More information available from US FCC via Universal Licensing System and Coast Guard Vessel Documentation Center.

Last reported at 2017-Oct-21 20:03 UTC. Time now 2017-Oct-22 17:22 UTC.
Position N 29°50' W 091°60'.

Length 22 m; draft 2.9 m.

Type: Wing in ground effect craft. MMSI: 366916840.

Date/timePositionNaut miles runAvg speedWind from/ knotsBaromVisibWave heightAir tempDewpointWater temp
2017-Oct-21 20:03N 29°50' W 091°60'0 6.6
2017-Oct-21 19:59N 29°50' W 092°00'3 6.2
2017-Oct-21 19:31N 29°49' W 092°03'3 5.8
2017-Oct-21 19:00N 29°48' W 092°07'3 6.1
2017-Oct-21 18:30N 29°47' W 092°10'2 4.5
2017-Oct-21 18:00N 29°47' W 092°12'0 0.5
2017-Oct-21 17:30N 29°47' W 092°13'1 1.4
2017-Oct-21 17:01N 29°48' W 092°13'0 0.2
2017-Oct-21 16:30N 29°48' W 092°14'0 0.5
2017-Oct-21 16:00N 29°48' W 092°14'0 0.5
2017-Oct-21 15:31N 29°48' W 092°14'0 0.2
2017-Oct-21 15:00N 29°48' W 092°14'2 3.4
2017-Oct-21 14:31N 29°49' W 092°16'42 4.4
2017-Oct-21 05:02N 29°56' W 093°04'0 5.9
2017-Oct-21 04:59N 29°56' W 093°04'2 4.4
2017-Oct-21 04:30N 29°56' W 093°06'3 5.3
2017-Oct-21 04:00N 29°56' W 093°09'3 5.8
2017-Oct-21 03:30N 29°58' W 093°12'2 4.1
2017-Oct-21 03:00N 29°60' W 093°13'2 3.7
2017-Oct-21 02:30N 30°01' W 093°14'2 3.3
2017-Oct-21 02:00N 30°02' W 093°16'2 3.3
2017-Oct-21 01:30N 30°04' W 093°16'2 3.6
2017-Oct-21 01:00N 30°05' W 093°18'1 1.5
2017-Oct-21 00:30N 30°06' W 093°18'0 0.1
2017-Oct-21 00:00N 30°06' W 093°18'0 0.0
2017-Oct-20 23:30N 30°06' W 093°18'0 0.0
2017-Oct-20 23:00N 30°06' W 093°18'0 0.0
2017-Oct-20 22:30N 30°06' W 093°18'0 0.0
2017-Oct-20 22:00N 30°06' W 093°18'0 0.0
2017-Oct-20 21:30N 30°06' W 093°18'1 1.1
2017-Oct-20 21:00N 30°06' W 093°19'0 0.4
2017-Oct-20 20:30N 30°06' W 093°19'0 0.0
2017-Oct-20 20:00N 30°06' W 093°19'0 0.0
2017-Oct-20 19:30N 30°06' W 093°19'0 0.0
2017-Oct-20 19:00N 30°06' W 093°19'0 0.0
2017-Oct-20 18:30N 30°06' W 093°19'0 0.0
2017-Oct-20 18:00N 30°06' W 093°19'0 0.0
2017-Oct-20 17:30N 30°06' W 093°19'0 0.0
2017-Oct-20 17:00N 30°06' W 093°19'0 0.0
2017-Oct-20 16:30N 30°06' W 093°19'0 0.0
2017-Oct-20 16:00N 30°06' W 093°19'0 0.0
2017-Oct-20 15:30N 30°06' W 093°19'0 0.0
2017-Oct-20 15:00N 30°06' W 093°19'0 0.0
2017-Oct-20 14:30N 30°06' W 093°19'0 0.0
2017-Oct-20 13:30N 30°06' W 093°19'0 0.0
2017-Oct-20 13:00N 30°06' W 093°19'0 0.0
2017-Oct-20 12:30N 30°06' W 093°19'0 0.0
2017-Oct-20 12:00N 30°06' W 093°19'0 0.2
2017-Oct-20 11:31N 30°06' W 093°19'1 2.1
2017-Oct-20 11:00N 30°05' W 093°20'0 0.5
2017-Oct-20 10:30N 30°05' W 093°20'1 1.4
2017-Oct-20 10:00N 30°04' W 093°20'1 2.7
2017-Oct-20 09:30N 30°04' W 093°22'2 3.5
2017-Oct-20 09:00N 30°04' W 093°24'3 6.1
2017-Oct-20 08:30N 30°04' W 093°27'3 6.3
2017-Oct-20 08:00N 30°04' W 093°31'3 6.2
2017-Oct-20 07:29N 30°04' W 093°35'3 6.6
2017-Oct-20 06:58N 30°04' W 093°39'72 4.6
2017-Oct-19 15:15N 29°30' W 094°52'2 7.5
2017-Oct-19 15:00N 29°31' W 094°53'3 6.7
2017-Oct-19 14:30N 29°34' W 094°55'4 7.3
2017-Oct-19 14:00N 29°37' W 094°57'3 6.6
2017-Oct-19 13:30N 29°40' W 094°59'3 6.6
2017-Oct-19 13:00N 29°43' W 095°01'6 2.0
2017-Oct-19 10:15N 29°46' W 095°06'0 0.6
2017-Oct-19 09:26N 29°46' W 095°06'3 5.6
2017-Oct-19 08:58N 29°44' W 095°08'3 7.6
2017-Oct-19 08:30N 29°45' W 095°12'4 5.2
2017-Oct-19 07:50N 29°44' W 095°16'0 0.0
2017-Oct-19 07:30N 29°44' W 095°16'0 0.0
2017-Oct-19 06:58N 29°44' W 095°16'0 0.0
2017-Oct-19 04:45N 29°44' W 095°16'0 0.0
2017-Oct-19 04:30N 29°44' W 095°16'0 0.0
2017-Oct-19 04:00N 29°44' W 095°16'0 0.0
2017-Oct-19 03:26N 29°44' W 095°16'0 0.0
2017-Oct-18 22:09N 29°44' W 095°16'0 0.0
2017-Oct-18 17:56N 29°44' W 095°16'3 6.2
2017-Oct-18 17:30N 29°44' W 095°13'3 6.1
2017-Oct-18 16:59N 29°44' W 095°09'3 1.1
2017-Oct-18 13:58N 29°46' W 095°06'1 0.3
2017-Oct-18 12:04N 29°47' W 095°06'0 0.0
2017-Oct-18 11:54N 29°47' W 095°06'0 0.0
2017-Oct-18 11:29N 29°47' W 095°06'0 0.0
2017-Oct-18 09:58N 29°47' W 095°06'0 0.0
2017-Oct-18 09:25N 29°47' W 095°06'0 0.0
2017-Oct-18 08:55N 29°47' W 095°06'0 0.0
2017-Oct-18 08:12N 29°47' W 095°06'0 0.0
2017-Oct-18 06:59N 29°47' W 095°06'0 0.0
2017-Oct-18 06:30N 29°47' W 095°06'0 0.0
2017-Oct-18 06:00N 29°47' W 095°06'0 0.0
2017-Oct-18 05:30N 29°47' W 095°06'0 0.0
2017-Oct-18 05:01N 29°47' W 095°06'0 0.0
2017-Oct-18 04:30N 29°47' W 095°06'0 0.8
2017-Oct-18 03:59N 29°46' W 095°06'0 0.4
2017-Oct-18 03:24N 29°46' W 095°06'0 0.1
2017-Oct-18 02:48N 29°46' W 095°06'0 0.8
2017-Oct-18 02:22N 29°46' W 095°06'1 1.4
2017-Oct-18 02:00N 29°46' W 095°05'2 3.2
2017-Oct-18 01:30N 29°45' W 095°04'3 5.6
2017-Oct-18 01:00N 29°43' W 095°01'3 5.6
2017-Oct-18 00:30N 29°41' W 094°59'3 5.1
2017-Oct-18 00:01N 29°39' W 094°58'3 6.3
2017-Oct-17 23:31N 29°36' W 094°57'3 6.5
2017-Oct-17 23:01N 29°33' W 094°55'68 3.9
2017-Oct-17 05:45N 30°02' W 093°44'2 6.4
2017-Oct-17 05:30N 30°03' W 093°43'3 6.4
2017-Oct-17 05:01N 30°04' W 093°39'3 5.7
2017-Oct-17 04:30N 30°04' W 093°36'3 5.4
2017-Oct-17 04:01N 30°04' W 093°32'3 5.4
2017-Oct-17 03:31N 30°04' W 093°29'3 5.5
2017-Oct-17 03:01N 30°04' W 093°26'3 5.5
2017-Oct-17 02:31N 30°04' W 093°23'2 4.2
2017-Oct-17 02:01N 30°04' W 093°21'1 1.2
2017-Oct-17 01:31N 30°05' W 093°20'2 3.3
2017-Oct-17 01:01N 30°06' W 093°19'1 3.0
2017-Oct-17 00:31N 30°05' W 093°18'2 3.4
2017-Oct-17 00:01N 30°04' W 093°16'2 4.1
2017-Oct-16 23:31N 30°02' W 093°15'2 4.7
2017-Oct-16 23:01N 30°00' W 093°14'3 5.4
2017-Oct-16 22:31N 29°58' W 093°12'3 5.4
2017-Oct-16 22:01N 29°56' W 093°10'3 5.4
2017-Oct-16 21:30N 29°56' W 093°06'40 5.2
2017-Oct-16 13:50N 29°51' W 092°21'2 5.2
2017-Oct-16 13:30N 29°50' W 092°19'2 3.5
2017-Oct-16 13:01N 29°49' W 092°18'3 5.3
2017-Oct-16 12:31N 29°48' W 092°15'2 4.9
2017-Oct-16 12:01N 29°47' W 092°12'2 4.5
2017-Oct-16 11:31N 29°47' W 092°10'3 5.0
2017-Oct-16 11:01N 29°47' W 092°07'2 4.8
2017-Oct-16 10:31N 29°48' W 092°04'3 5.1
2017-Oct-16 09:53N 29°49' W 092°01'56 4.1
2017-Oct-15 20:01N 29°36' W 090°58'0 5.9
2017-Oct-15 19:58N 29°35' W 090°58'2 4.5
2017-Oct-15 19:28N 29°34' W 090°56'3 5.8
2017-Oct-15 18:57N 29°32' W 090°53'3 5.9
2017-Oct-15 18:31N 29°32' W 090°50'3 6.2
2017-Oct-15 18:01N 29°32' W 090°46'3 5.4
2017-Oct-15 17:31N 29°34' W 090°44'2 3.8
2017-Oct-15 17:01N 29°35' W 090°43'2 3.2
2017-Oct-15 16:30N 29°37' W 090°41'3 5.2
2017-Oct-15 16:01N 29°36' W 090°39'3 5.2
2017-Oct-15 15:31N 29°35' W 090°36'3 5.0
2017-Oct-15 15:01N 29°34' W 090°33'8 5.8
2017-Oct-15 13:43N 29°33' W 090°25'1 4.1
2017-Oct-15 13:26N 29°34' W 090°23'2 4.0
2017-Oct-15 12:55N 29°35' W 090°22'31 1.2
2017-Oct-14 10:04N 30°01' W 090°42'3 6.7
2017-Oct-14 09:36N 30°01' W 090°46'1 6.8
2017-Oct-14 09:28N 30°01' W 090°47'  
Track history (hours):
 
Tides and Currents Weather Stations Pressure Air Temp Water Temp Dewpoint Dewpoint Depression Visibility Wind Speed Wind Dir Waves Ship Positions

Eula B. Devall

Owner: Eula B. Devall, Inc., Sulphur, LA. More information available from US FCC via Universal Licensing System and Coast Guard Vessel Documentation Center.

Last reported at 2017-Oct-21 20:03 UTC. Time now 2017-Oct-22 17:22 UTC.
Position N 29°50' W 091°60'.

Length 22 m; draft 2.9 m.

Type: Wing in ground effect craft. MMSI: 366916840.

Date/timePositionNaut miles runAvg speedWind from/ knotsBaromVisibWave heightAir tempDewpointWater temp
2017-Oct-21 20:03N 29°50' W 091°60'0 6.6
2017-Oct-21 19:59N 29°50' W 092°00'3 6.2
2017-Oct-21 19:31N 29°49' W 092°03'3 5.8
2017-Oct-21 19:00N 29°48' W 092°07'3 6.1
2017-Oct-21 18:30N 29°47' W 092°10'2 4.5
2017-Oct-21 18:00N 29°47' W 092°12'0 0.5
2017-Oct-21 17:30N 29°47' W 092°13'1 1.4
2017-Oct-21 17:01N 29°48' W 092°13'0 0.2
2017-Oct-21 16:30N 29°48' W 092°14'0 0.5
2017-Oct-21 16:00N 29°48' W 092°14'0 0.5
2017-Oct-21 15:31N 29°48' W 092°14'0 0.2
2017-Oct-21 15:00N 29°48' W 092°14'2 3.4
2017-Oct-21 14:31N 29°49' W 092°16'42 4.4
2017-Oct-21 05:02N 29°56' W 093°04'0 5.9
2017-Oct-21 04:59N 29°56' W 093°04'2 4.4
2017-Oct-21 04:30N 29°56' W 093°06'3 5.3
2017-Oct-21 04:00N 29°56' W 093°09'3 5.8
2017-Oct-21 03:30N 29°58' W 093°12'2 4.1
2017-Oct-21 03:00N 29°60' W 093°13'2 3.7
2017-Oct-21 02:30N 30°01' W 093°14'2 3.3
2017-Oct-21 02:00N 30°02' W 093°16'2 3.3
2017-Oct-21 01:30N 30°04' W 093°16'2 3.6
2017-Oct-21 01:00N 30°05' W 093°18'1 1.5
2017-Oct-21 00:30N 30°06' W 093°18'0 0.1
2017-Oct-21 00:00N 30°06' W 093°18'0 0.0
2017-Oct-20 23:30N 30°06' W 093°18'0 0.0
2017-Oct-20 23:00N 30°06' W 093°18'0 0.0
2017-Oct-20 22:30N 30°06' W 093°18'0 0.0
2017-Oct-20 22:00N 30°06' W 093°18'0 0.0
2017-Oct-20 21:30N 30°06' W 093°18'1 1.1
2017-Oct-20 21:00N 30°06' W 093°19'0 0.4
2017-Oct-20 20:30N 30°06' W 093°19'0 0.0
2017-Oct-20 20:00N 30°06' W 093°19'0 0.0
2017-Oct-20 19:30N 30°06' W 093°19'0 0.0
2017-Oct-20 19:00N 30°06' W 093°19'0 0.0
2017-Oct-20 18:30N 30°06' W 093°19'0 0.0
2017-Oct-20 18:00N 30°06' W 093°19'0 0.0
2017-Oct-20 17:30N 30°06' W 093°19'0 0.0
2017-Oct-20 17:00N 30°06' W 093°19'0 0.0
2017-Oct-20 16:30N 30°06' W 093°19'0 0.0
2017-Oct-20 16:00N 30°06' W 093°19'0 0.0
2017-Oct-20 15:30N 30°06' W 093°19'0 0.0
2017-Oct-20 15:00N 30°06' W 093°19'0 0.0
2017-Oct-20 14:30N 30°06' W 093°19'0 0.0
2017-Oct-20 13:30N 30°06' W 093°19'0 0.0
2017-Oct-20 13:00N 30°06' W 093°19'0 0.0
2017-Oct-20 12:30N 30°06' W 093°19'0 0.0
2017-Oct-20 12:00N 30°06' W 093°19'0 0.2
2017-Oct-20 11:31N 30°06' W 093°19'1 2.1
2017-Oct-20 11:00N 30°05' W 093°20'0 0.5
2017-Oct-20 10:30N 30°05' W 093°20'1 1.4
2017-Oct-20 10:00N 30°04' W 093°20'1 2.7
2017-Oct-20 09:30N 30°04' W 093°22'2 3.5
2017-Oct-20 09:00N 30°04' W 093°24'3 6.1
2017-Oct-20 08:30N 30°04' W 093°27'3 6.3
2017-Oct-20 08:00N 30°04' W 093°31'3 6.2
2017-Oct-20 07:29N 30°04' W 093°35'3 6.6
2017-Oct-20 06:58N 30°04' W 093°39'72 4.6
2017-Oct-19 15:15N 29°30' W 094°52'2 7.5
2017-Oct-19 15:00N 29°31' W 094°53'3 6.7
2017-Oct-19 14:30N 29°34' W 094°55'4 7.3
2017-Oct-19 14:00N 29°37' W 094°57'3 6.6
2017-Oct-19 13:30N 29°40' W 094°59'3 6.6
2017-Oct-19 13:00N 29°43' W 095°01'6 2.0
2017-Oct-19 10:15N 29°46' W 095°06'0 0.6
2017-Oct-19 09:26N 29°46' W 095°06'3 5.6
2017-Oct-19 08:58N 29°44' W 095°08'3 7.6
2017-Oct-19 08:30N 29°45' W 095°12'4 5.2
2017-Oct-19 07:50N 29°44' W 095°16'0 0.0
2017-Oct-19 07:30N 29°44' W 095°16'0 0.0
2017-Oct-19 06:58N 29°44' W 095°16'0 0.0
2017-Oct-19 04:45N 29°44' W 095°16'0 0.0
2017-Oct-19 04:30N 29°44' W 095°16'0 0.0
2017-Oct-19 04:00N 29°44' W 095°16'0 0.0
2017-Oct-19 03:26N 29°44' W 095°16'0 0.0
2017-Oct-18 22:09N 29°44' W 095°16'0 0.0
2017-Oct-18 17:56N 29°44' W 095°16'3 6.2
2017-Oct-18 17:30N 29°44' W 095°13'3 6.1
2017-Oct-18 16:59N 29°44' W 095°09'3 1.1
2017-Oct-18 13:58N 29°46' W 095°06'1 0.3
2017-Oct-18 12:04N 29°47' W 095°06'0 0.0
2017-Oct-18 11:54N 29°47' W 095°06'0 0.0
2017-Oct-18 11:29N 29°47' W 095°06'0 0.0
2017-Oct-18 09:58N 29°47' W 095°06'0 0.0
2017-Oct-18 09:25N 29°47' W 095°06'0 0.0
2017-Oct-18 08:55N 29°47' W 095°06'0 0.0
2017-Oct-18 08:12N 29°47' W 095°06'0 0.0
2017-Oct-18 06:59N 29°47' W 095°06'0 0.0
2017-Oct-18 06:30N 29°47' W 095°06'0 0.0
2017-Oct-18 06:00N 29°47' W 095°06'0 0.0
2017-Oct-18 05:30N 29°47' W 095°06'0 0.0
2017-Oct-18 05:01N 29°47' W 095°06'0 0.0
2017-Oct-18 04:30N 29°47' W 095°06'0 0.8
2017-Oct-18 03:59N 29°46' W 095°06'0 0.4
2017-Oct-18 03:24N 29°46' W 095°06'0 0.1
2017-Oct-18 02:48N 29°46' W 095°06'0 0.8
2017-Oct-18 02:22N 29°46' W 095°06'1 1.4
2017-Oct-18 02:00N 29°46' W 095°05'2 3.2
2017-Oct-18 01:30N 29°45' W 095°04'3 5.6
2017-Oct-18 01:00N 29°43' W 095°01'3 5.6
2017-Oct-18 00:30N 29°41' W 094°59'3 5.1
2017-Oct-18 00:01N 29°39' W 094°58'3 6.3
2017-Oct-17 23:31N 29°36' W 094°57'3 6.5
2017-Oct-17 23:01N 29°33' W 094°55'68 3.9
2017-Oct-17 05:45N 30°02' W 093°44'2 6.4
2017-Oct-17 05:30N 30°03' W 093°43'3 6.4
2017-Oct-17 05:01N 30°04' W 093°39'3 5.7
2017-Oct-17 04:30N 30°04' W 093°36'3 5.4
2017-Oct-17 04:01N 30°04' W 093°32'3 5.4
2017-Oct-17 03:31N 30°04' W 093°29'3 5.5
2017-Oct-17 03:01N 30°04' W 093°26'3 5.5
2017-Oct-17 02:31N 30°04' W 093°23'2 4.2
2017-Oct-17 02:01N 30°04' W 093°21'1 1.2
2017-Oct-17 01:31N 30°05' W 093°20'2 3.3
2017-Oct-17 01:01N 30°06' W 093°19'1 3.0
2017-Oct-17 00:31N 30°05' W 093°18'2 3.4
2017-Oct-17 00:01N 30°04' W 093°16'2 4.1
2017-Oct-16 23:31N 30°02' W 093°15'2 4.7
2017-Oct-16 23:01N 30°00' W 093°14'3 5.4
2017-Oct-16 22:31N 29°58' W 093°12'3 5.4
2017-Oct-16 22:01N 29°56' W 093°10'3 5.4
2017-Oct-16 21:30N 29°56' W 093°06'40 5.2
2017-Oct-16 13:50N 29°51' W 092°21'2 5.2
2017-Oct-16 13:30N 29°50' W 092°19'2 3.5
2017-Oct-16 13:01N 29°49' W 092°18'3 5.3
2017-Oct-16 12:31N 29°48' W 092°15'2 4.9
2017-Oct-16 12:01N 29°47' W 092°12'2 4.5
2017-Oct-16 11:31N 29°47' W 092°10'3 5.0
2017-Oct-16 11:01N 29°47' W 092°07'2 4.8
2017-Oct-16 10:31N 29°48' W 092°04'3 5.1
2017-Oct-16 09:53N 29°49' W 092°01'56 4.1
2017-Oct-15 20:01N 29°36' W 090°58'0 5.9
2017-Oct-15 19:58N 29°35' W 090°58'2 4.5
2017-Oct-15 19:28N 29°34' W 090°56'3 5.8
2017-Oct-15 18:57N 29°32' W 090°53'3 5.9
2017-Oct-15 18:31N 29°32' W 090°50'3 6.2
2017-Oct-15 18:01N 29°32' W 090°46'3 5.4
2017-Oct-15 17:31N 29°34' W 090°44'2 3.8
2017-Oct-15 17:01N 29°35' W 090°43'2 3.2
2017-Oct-15 16:30N 29°37' W 090°41'3 5.2
2017-Oct-15 16:01N 29°36' W 090°39'3 5.2
2017-Oct-15 15:31N 29°35' W 090°36'3 5.0
2017-Oct-15 15:01N 29°34' W 090°33'8 5.8
2017-Oct-15 13:43N 29°33' W 090°25'1 4.1
2017-Oct-15 13:26N 29°34' W 090°23'2 4.0
2017-Oct-15 12:55N 29°35' W 090°22'31 1.2
2017-Oct-14 10:04N 30°01' W 090°42'3 6.7
2017-Oct-14 09:36N 30°01' W 090°46'1 6.8
2017-Oct-14 09:28N 30°01' W 090°47'  

Dump ship's entire track history